createdAt,value
2022-11-30T00:01:24.851Z,5.15
2022-11-30T00:03:57.232Z,4.88
2022-11-30T00:06:25.799Z,4.10
2022-11-30T00:08:58.021Z,4.25
2022-11-30T00:11:28.683Z,4.07
2022-11-30T00:13:56.367Z,4.15
2022-11-30T00:16:23.861Z,3.80
2022-11-30T00:18:51.355Z,4.50
2022-11-30T00:21:19.102Z,4.20
2022-11-30T00:23:48.563Z,3.60
2022-11-30T00:26:19.748Z,4.05
2022-11-30T00:28:47.848Z,4.43
2022-11-30T00:31:18.367Z,3.75
2022-11-30T00:33:46.569Z,4.78
2022-11-30T00:36:21.309Z,4.38
2022-11-30T00:38:51.016Z,4.13
2022-11-30T00:41:20.323Z,4.53
2022-11-30T00:43:47.831Z,4.18
2022-11-30T00:46:15.490Z,4.90
2022-11-30T00:51:12.375Z,4.75
2022-11-30T00:53:40.916Z,4.82
2022-11-30T00:56:09.976Z,4.82
2022-11-30T00:58:37.277Z,6.20
2022-11-30T01:01:04.920Z,6.13
2022-11-30T01:03:32.850Z,6.28
2022-11-30T01:06:06.300Z,7.18
2022-11-30T01:08:34.204Z,4.90
2022-11-30T01:11:28.285Z,6.90
2022-11-30T01:13:57.666Z,10.52
2022-11-30T01:16:32.554Z,6.38
2022-11-30T01:19:00.546Z,5.32
2022-11-30T01:21:29.513Z,4.75
2022-11-30T01:23:56.887Z,4.53
2022-11-30T01:26:24.988Z,5.20
2022-11-30T01:28:56.498Z,5.18
2022-11-30T01:31:25.487Z,3.42
2022-11-30T01:33:55.458Z,5.07
2022-11-30T01:36:27.012Z,4.88
2022-11-30T01:38:57.798Z,5.25
2022-11-30T01:41:33.226Z,6.07
2022-11-30T01:44:06.042Z,4.85
2022-11-30T01:47:11.573Z,5.07
2022-11-30T01:49:57.767Z,4.85
2022-11-30T01:52:56.754Z,5.80
2022-11-30T01:55:49.341Z,4.03
2022-11-30T01:58:26.382Z,4.45
2022-11-30T02:00:56.444Z,4.63
2022-11-30T02:03:30.491Z,5.05
2022-11-30T02:06:04.304Z,3.65
2022-11-30T02:08:33.313Z,5.65
2022-11-30T02:11:10.685Z,5.72
2022-11-30T02:14:06.689Z,4.38
2022-11-30T02:17:03.504Z,4.80
2022-11-30T02:20:01.697Z,3.95
2022-11-30T02:22:46.942Z,5.53
2022-11-30T02:25:40.006Z,4.80
2022-11-30T02:28:42.953Z,5.97
2022-11-30T02:31:21.674Z,4.93
2022-11-30T02:33:56.615Z,4.05
2022-11-30T02:36:27.328Z,5.55
2022-11-30T02:39:18.110Z,5.38
2022-11-30T02:41:47.747Z,4.78
2022-11-30T02:44:18.133Z,5.95
2022-11-30T02:47:24.406Z,4.43
2022-11-30T02:50:23.553Z,6.13
2022-11-30T02:52:52.973Z,4.55
2022-11-30T02:55:25.956Z,4.78
2022-11-30T02:57:57.140Z,4.38
2022-11-30T03:00:29.556Z,5.07
2022-11-30T03:02:58.004Z,4.43
2022-11-30T03:05:25.775Z,4.43
2022-11-30T03:10:24.402Z,6.38
2022-11-30T03:12:53.872Z,4.70
2022-11-30T03:15:22.264Z,5.93
2022-11-30T03:17:52.856Z,5.15
2022-11-30T03:20:23.095Z,6.03
2022-11-30T03:22:54.165Z,4.78
2022-11-30T03:25:21.250Z,5.40
2022-11-30T03:27:53.553Z,4.93
2022-11-30T03:30:22.403Z,5.28
2022-11-30T03:32:59.972Z,5.25
2022-11-30T03:35:28.834Z,7.22
2022-11-30T03:37:58.280Z,5.32
2022-11-30T03:40:26.951Z,6.38
2022-11-30T03:42:54.937Z,5.50
2022-11-30T03:45:26.790Z,5.90
2022-11-30T03:48:05.419Z,7.18
2022-11-30T03:50:39.590Z,6.82
2022-11-30T03:55:35.702Z,5.07
2022-11-30T03:58:04.474Z,5.13
2022-11-30T04:00:32.712Z,6.32
2022-11-30T04:03:00.780Z,5.93
2022-11-30T04:05:29.556Z,7.05
2022-11-30T04:07:58.690Z,6.88
2022-11-30T04:10:37.768Z,5.10
2022-11-30T04:13:08.618Z,6.68
2022-11-30T04:15:37.775Z,6.53
2022-11-30T04:18:06.561Z,4.75
2022-11-30T04:20:40.239Z,5.45
2022-11-30T04:25:43.713Z,7.47
2022-11-30T04:28:13.054Z,6.88
2022-11-30T04:30:40.658Z,5.57
2022-11-30T04:33:07.889Z,7.53
2022-11-30T04:35:40.202Z,6.15
2022-11-30T04:38:07.715Z,5.65
2022-11-30T04:40:35.005Z,6.25
2022-11-30T04:43:02.169Z,5.93
2022-11-30T04:45:35.039Z,7.32
2022-11-30T04:48:05.677Z,5.80
2022-11-30T04:50:33.428Z,6.15
2022-11-30T04:53:00.745Z,7.05
2022-11-30T04:55:28.590Z,7.78
2022-11-30T04:57:55.806Z,7.88
2022-11-30T05:00:23.750Z,7.32
2022-11-30T05:02:53.144Z,7.63
2022-11-30T05:05:20.989Z,7.22
2022-11-30T05:07:57.583Z,7.32
2022-11-30T05:10:26.813Z,6.38
2022-11-30T05:12:54.704Z,7.28
2022-11-30T05:15:22.217Z,6.22
2022-11-30T05:17:49.408Z,7.80
2022-11-30T05:20:16.819Z,5.78
2022-11-30T05:22:44.164Z,6.65
2022-11-30T05:25:11.539Z,7.28
2022-11-30T05:27:38.827Z,7.00
2022-11-30T05:30:07.726Z,6.80
2022-11-30T05:32:35.243Z,5.68
2022-11-30T05:35:02.722Z,6.28
2022-11-30T05:37:29.890Z,6.40
2022-11-30T05:39:57.003Z,6.35
2022-11-30T05:42:24.365Z,6.40
2022-11-30T05:44:51.623Z,8.85
2022-11-30T05:47:18.880Z,5.43
2022-11-30T05:49:46.027Z,6.75
2022-11-30T05:52:13.161Z,6.57
2022-11-30T05:54:40.453Z,6.40
2022-11-30T05:57:07.658Z,7.43
2022-11-30T05:59:34.806Z,6.63
2022-11-30T06:02:02.053Z,5.47
2022-11-30T06:04:29.558Z,9.20
2022-11-30T06:06:56.775Z,5.25
2022-11-30T06:09:24.160Z,6.97
2022-11-30T06:11:51.766Z,5.85
2022-11-30T06:14:18.956Z,7.88
2022-11-30T06:16:46.389Z,7.18
2022-11-30T06:19:13.800Z,6.35
2022-11-30T06:21:40.964Z,7.70
2022-11-30T06:24:10.259Z,4.40
2022-11-30T06:26:37.442Z,8.27
2022-11-30T06:29:07.102Z,7.82
2022-11-30T06:31:35.234Z,5.20
2022-11-30T06:34:09.336Z,5.80
2022-11-30T06:39:05.283Z,6.55
2022-11-30T06:41:32.554Z,6.38
2022-11-30T06:43:59.868Z,7.72
2022-11-30T06:46:28.090Z,6.50
2022-11-30T06:48:55.753Z,8.15
2022-11-30T06:53:59.769Z,5.32
2022-11-30T06:56:27.068Z,6.57
2022-11-30T06:58:54.561Z,6.68
2022-11-30T07:01:21.941Z,6.70
2022-11-30T07:03:50.084Z,6.50
2022-11-30T07:06:17.337Z,5.97
2022-11-30T07:08:44.924Z,6.70
2022-11-30T07:13:40.234Z,9.23
2022-11-30T07:16:11.327Z,7.53
2022-11-30T07:18:39.007Z,7.75
2022-11-30T07:23:56.776Z,6.82
2022-11-30T07:26:25.800Z,7.60
2022-11-30T07:28:55.532Z,6.10
2022-11-30T07:31:35.007Z,10.38
2022-11-30T07:34:10.771Z,7.82
2022-11-30T07:36:38.011Z,7.07
2022-11-30T07:39:05.564Z,6.13
2022-11-30T07:44:00.506Z,6.47
2022-11-30T07:46:27.666Z,7.45
2022-11-30T07:48:54.883Z,7.45
2022-11-30T07:51:23.474Z,7.05
2022-11-30T07:53:50.971Z,7.43
2022-11-30T07:56:20.905Z,7.70
2022-11-30T07:58:50.700Z,6.28
2022-11-30T08:01:22.464Z,6.68
2022-11-30T08:03:51.736Z,5.10
2022-11-30T08:06:25.037Z,7.63
2022-11-30T08:08:56.513Z,6.15
2022-11-30T08:11:32.439Z,8.60
2022-11-30T08:14:00.219Z,7.15
2022-11-30T08:16:31.919Z,7.05
2022-11-30T08:18:59.489Z,8.93
2022-11-30T08:23:56.995Z,8.18
2022-11-30T08:26:33.745Z,4.72
2022-11-30T08:29:02.417Z,7.53
2022-11-30T08:31:32.585Z,6.43
2022-11-30T08:34:03.679Z,7.65
2022-11-30T08:36:31.939Z,6.95
2022-11-30T08:39:02.516Z,5.85
2022-11-30T08:41:30.021Z,9.25
2022-11-30T08:46:50.166Z,6.05
2022-11-30T08:49:22.073Z,8.38
2022-11-30T08:52:16.523Z,8.10
2022-11-30T08:54:47.928Z,6.80
2022-11-30T08:57:21.512Z,7.68
2022-11-30T08:59:49.165Z,8.00
2022-11-30T09:02:18.986Z,7.55
2022-11-30T09:04:49.667Z,8.35
2022-11-30T09:07:17.725Z,7.72
2022-11-30T09:09:45.026Z,8.20
2022-11-30T09:12:13.735Z,6.60
2022-11-30T09:14:40.823Z,7.38
2022-11-30T09:17:10.759Z,7.07
2022-11-30T09:19:37.932Z,8.60
2022-11-30T09:22:05.134Z,11.82
2022-11-30T09:24:32.393Z,8.60
2022-11-30T09:26:59.566Z,9.88
2022-11-30T09:29:27.285Z,12.05
2022-11-30T09:31:54.514Z,11.50
2022-11-30T09:34:22.046Z,15.27
2022-11-30T09:36:49.233Z,16.83
2022-11-30T09:39:16.644Z,7.80
2022-11-30T09:45:13.945Z,6.38
2022-11-30T09:48:23.881Z,6.40
2022-11-30T09:50:53.371Z,7.63
2022-11-30T09:54:08.996Z,6.95
2022-11-30T09:56:42.320Z,9.07
2022-11-30T09:59:38.174Z,10.57
2022-11-30T10:02:19.311Z,9.13
2022-11-30T10:04:48.889Z,8.45
2022-11-30T10:07:47.263Z,8.80
2022-11-30T10:10:41.816Z,8.25
2022-11-30T10:13:45.309Z,7.60
2022-11-30T10:16:33.272Z,6.80
2022-11-30T10:19:27.439Z,12.63
2022-11-30T10:22:56.131Z,7.07
2022-11-30T10:25:51.816Z,8.65
2022-11-30T10:28:47.941Z,6.25
2022-11-30T10:31:17.384Z,6.28
2022-11-30T10:33:55.125Z,6.53
2022-11-30T10:36:39.781Z,6.65
2022-11-30T10:39:22.731Z,6.80
2022-11-30T10:42:22.728Z,6.32
2022-11-30T10:45:24.530Z,5.68
2022-11-30T10:48:10.538Z,7.53
2022-11-30T10:50:37.904Z,7.03
2022-11-30T10:53:06.606Z,8.18
2022-11-30T10:55:45.612Z,6.82
2022-11-30T10:58:23.328Z,8.00
2022-11-30T11:01:03.281Z,8.27
2022-11-30T11:06:23.982Z,10.15
2022-11-30T11:08:51.781Z,6.40
2022-11-30T11:11:39.471Z,5.82
2022-11-30T11:14:19.131Z,8.18
2022-11-30T11:17:03.012Z,9.18
2022-11-30T11:19:41.703Z,9.10
2022-11-30T11:22:27.780Z,8.07
2022-11-30T11:25:24.636Z,6.00
2022-11-30T11:27:56.096Z,8.65
2022-11-30T11:30:25.943Z,8.50
2022-11-30T11:33:15.112Z,10.68
2022-11-30T11:35:52.588Z,8.73
2022-11-30T11:38:27.556Z,8.18
2022-11-30T11:41:09.893Z,8.45
2022-11-30T11:44:05.394Z,7.30
2022-11-30T11:46:36.624Z,7.82
2022-11-30T11:49:26.415Z,7.13
2022-11-30T11:52:06.124Z,8.50
2022-11-30T11:54:47.522Z,8.07
2022-11-30T11:57:19.953Z,6.97
2022-11-30T12:00:05.599Z,8.73
2022-11-30T12:02:49.072Z,7.20
2022-11-30T12:05:24.764Z,7.65
2022-11-30T12:08:22.677Z,11.60
2022-11-30T12:10:59.328Z,6.80
2022-11-30T12:13:42.216Z,8.45
2022-11-30T12:16:12.917Z,8.15
2022-11-30T12:19:06.114Z,9.02
2022-11-30T12:22:08.624Z,7.53
2022-11-30T12:25:06.067Z,8.38
2022-11-30T12:27:33.860Z,8.88
2022-11-30T12:30:18.865Z,7.80
2022-11-30T12:33:35.121Z,8.35
2022-11-30T12:36:50.265Z,10.07
2022-11-30T12:40:00.419Z,8.45
2022-11-30T12:43:09.728Z,7.70
2022-11-30T12:45:48.669Z,8.57
2022-11-30T12:48:55.544Z,8.10
2022-11-30T12:51:40.958Z,8.73
2022-11-30T12:54:19.925Z,9.70
2022-11-30T12:57:20.439Z,8.38
2022-11-30T12:59:51.353Z,8.70
2022-11-30T13:03:00.914Z,15.63
2022-11-30T13:05:40.820Z,7.82
2022-11-30T13:08:26.913Z,10.38
2022-11-30T13:13:41.919Z,9.57
2022-11-30T13:16:10.555Z,11.00
2022-11-30T13:18:39.395Z,8.93
2022-11-30T13:21:31.214Z,9.18
2022-11-30T13:24:18.392Z,9.18
2022-11-30T13:27:14.473Z,10.05
2022-11-30T13:30:07.468Z,11.18
2022-11-30T13:35:30.187Z,8.80
2022-11-30T13:38:36.793Z,8.38
2022-11-30T13:41:09.239Z,6.88
2022-11-30T13:43:47.957Z,7.72
2022-11-30T13:46:25.745Z,7.53
2022-11-30T13:49:19.955Z,9.68
2022-11-30T13:52:01.417Z,10.82
2022-11-30T13:54:40.050Z,12.75
2022-11-30T13:57:25.777Z,11.68
2022-11-30T14:00:03.279Z,17.25
2022-11-30T14:02:31.549Z,14.30
2022-11-30T14:05:16.906Z,11.57
2022-11-30T14:07:54.383Z,13.20
2022-11-30T14:10:36.844Z,9.18
2022-11-30T14:13:05.935Z,8.65
2022-11-30T14:15:39.469Z,8.25
2022-11-30T14:21:12.863Z,8.88
2022-11-30T14:23:39.965Z,9.35
2022-11-30T14:26:25.114Z,8.82
2022-11-30T14:29:14.463Z,9.80
2022-11-30T14:32:02.302Z,8.65
2022-11-30T14:34:44.376Z,8.88
2022-11-30T14:37:29.312Z,9.77
2022-11-30T14:40:02.764Z,9.32
2022-11-30T14:42:32.789Z,8.85
2022-11-30T14:45:00.508Z,8.95
2022-11-30T14:47:36.318Z,8.15
2022-11-30T14:50:07.168Z,10.45
2022-11-30T14:53:01.173Z,10.43
2022-11-30T14:55:44.354Z,10.85
2022-11-30T14:58:53.808Z,9.52
2022-11-30T15:01:27.004Z,10.10
2022-11-30T15:04:01.235Z,7.78
2022-11-30T15:06:34.458Z,9.95
2022-11-30T15:09:02.760Z,8.80
2022-11-30T15:11:31.703Z,11.90
2022-11-30T15:14:11.748Z,8.70
2022-11-30T15:16:47.615Z,11.38
2022-11-30T15:19:33.343Z,9.73
2022-11-30T15:22:00.847Z,8.35
2022-11-30T15:24:30.554Z,10.43
2022-11-30T15:27:10.579Z,8.82
2022-11-30T15:29:46.840Z,7.80
2022-11-30T15:32:23.920Z,10.20
2022-11-30T15:35:01.142Z,10.00
2022-11-30T15:37:41.277Z,11.85
2022-11-30T15:42:40.613Z,12.88
2022-11-30T15:45:23.797Z,11.80
2022-11-30T15:47:55.024Z,12.07
2022-11-30T15:50:30.924Z,10.40
2022-11-30T15:53:21.400Z,12.10
2022-11-30T15:55:51.692Z,16.00
2022-11-30T15:58:26.078Z,14.48
2022-11-30T16:01:11.830Z,13.73
2022-11-30T16:04:05.806Z,13.93
2022-11-30T16:06:37.290Z,13.15
2022-11-30T16:09:32.624Z,13.50
2022-11-30T16:12:02.442Z,13.00
2022-11-30T16:14:29.840Z,11.27
2022-11-30T16:16:57.441Z,13.93
2022-11-30T16:19:24.928Z,18.70
2022-11-30T16:21:52.130Z,14.30
2022-11-30T16:24:20.511Z,12.85
2022-11-30T16:26:51.949Z,11.07
2022-11-30T16:29:20.227Z,15.55
2022-11-30T16:31:47.547Z,17.75
2022-11-30T16:34:14.703Z,15.70
2022-11-30T16:36:41.836Z,12.98
2022-11-30T16:39:13.449Z,17.00
2022-11-30T16:41:40.802Z,16.75
2022-11-30T16:44:14.470Z,14.00
2022-11-30T16:46:42.274Z,14.60
2022-11-30T16:49:09.576Z,12.30
2022-11-30T16:51:36.995Z,11.75
2022-11-30T16:54:04.824Z,12.27
2022-11-30T16:56:32.223Z,13.02
2022-11-30T16:58:59.444Z,15.23
2022-11-30T17:01:37.269Z,18.17
2022-11-30T17:04:16.831Z,19.30
2022-11-30T17:06:49.676Z,17.83
2022-11-30T17:09:21.124Z,21.77
2022-11-30T17:11:50.967Z,15.02
2022-11-30T17:14:20.971Z,18.73
2022-11-30T17:16:48.497Z,14.05
2022-11-30T17:19:15.845Z,15.20
2022-11-30T17:21:44.879Z,12.07
2022-11-30T17:24:12.760Z,9.18
2022-11-30T17:26:41.264Z,13.15
2022-11-30T17:29:08.881Z,8.82
2022-11-30T17:31:36.256Z,12.27
2022-11-30T17:34:03.689Z,9.77
2022-11-30T17:36:31.057Z,10.05
2022-11-30T17:38:58.320Z,12.20
2022-11-30T17:41:25.496Z,17.95
2022-11-30T17:43:52.758Z,17.40
2022-11-30T17:46:21.283Z,14.85
2022-11-30T17:48:49.838Z,15.85
2022-11-30T17:51:17.438Z,14.73
2022-11-30T17:56:17.024Z,12.20
2022-11-30T17:58:45.461Z,15.55
2022-11-30T18:01:20.777Z,17.35
2022-11-30T18:03:48.830Z,13.95
2022-11-30T18:06:17.338Z,18.95
2022-11-30T18:08:45.424Z,17.02
2022-11-30T18:11:20.599Z,15.90
2022-11-30T18:13:54.212Z,16.13
2022-11-30T18:16:25.767Z,17.52
2022-11-30T18:18:54.270Z,21.70
2022-11-30T18:21:25.846Z,19.15
2022-11-30T18:23:54.034Z,17.10
2022-11-30T18:26:24.559Z,14.10
2022-11-30T18:28:55.833Z,15.18
2022-11-30T18:31:23.549Z,15.68
2022-11-30T18:36:26.785Z,27.15
2022-11-30T18:38:55.423Z,22.67
2022-11-30T18:41:24.663Z,22.88
2022-11-30T18:43:55.053Z,20.17
2022-11-30T18:46:22.863Z,23.77
2022-11-30T18:51:26.347Z,51.78
2022-11-30T18:54:12.657Z,41.53
2022-11-30T18:56:41.486Z,26.30
2022-11-30T18:59:14.433Z,19.75
2022-11-30T19:01:42.439Z,33.47
2022-11-30T19:04:11.718Z,30.08
2022-11-30T19:06:41.897Z,35.08
2022-11-30T19:09:14.381Z,26.58
2022-11-30T19:11:43.672Z,37.22
2022-11-30T19:14:15.192Z,39.70
2022-11-30T19:16:43.969Z,36.05
2022-11-30T19:19:14.330Z,48.05
2022-11-30T19:21:45.585Z,37.83
2022-11-30T19:24:12.851Z,34.90
2022-11-30T19:26:40.499Z,41.25
2022-11-30T19:29:10.708Z,44.92
2022-11-30T19:31:39.715Z,40.58
2022-11-30T19:34:12.640Z,30.25
2022-11-30T19:36:40.954Z,37.80
2022-11-30T19:39:10.101Z,44.67
2022-11-30T19:41:37.753Z,29.90
2022-11-30T19:44:05.355Z,19.33
2022-11-30T19:46:34.865Z,35.78
2022-11-30T19:49:02.936Z,41.90
2022-11-30T19:51:31.918Z,44.05
2022-11-30T19:53:59.647Z,38.25
2022-11-30T19:56:31.241Z,37.00
2022-11-30T19:59:04.433Z,35.85
2022-11-30T20:01:32.951Z,38.63
2022-11-30T20:04:00.673Z,33.05
2022-11-30T20:06:34.176Z,27.40
2022-11-30T20:09:02.534Z,30.55
2022-11-30T20:11:31.799Z,31.45
2022-11-30T20:14:00.528Z,35.70
2022-11-30T20:16:28.817Z,34.55
2022-11-30T20:19:01.755Z,31.38
2022-11-30T20:21:36.273Z,30.40
2022-11-30T20:24:08.398Z,31.85
2022-11-30T20:26:40.205Z,30.08
2022-11-30T20:29:13.366Z,31.58
2022-11-30T20:31:41.983Z,33.83
2022-11-30T20:34:10.558Z,32.05
2022-11-30T20:36:38.394Z,31.65
2022-11-30T20:41:34.610Z,24.83
2022-11-30T20:44:02.699Z,24.80
2022-11-30T20:46:35.077Z,22.17
2022-11-30T20:49:17.992Z,20.15
2022-11-30T20:51:46.014Z,20.73
2022-11-30T20:54:15.659Z,24.05
2022-11-30T20:56:43.518Z,33.40
2022-11-30T21:01:47.123Z,23.48
2022-11-30T21:04:14.688Z,29.13
2022-11-30T21:06:45.920Z,25.38
2022-11-30T21:09:15.195Z,28.52
2022-11-30T21:11:43.431Z,26.33
2022-11-30T21:14:13.863Z,23.75
2022-11-30T21:16:41.624Z,35.80
2022-11-30T21:21:38.956Z,23.52
2022-11-30T21:24:11.004Z,29.85
2022-11-30T21:26:42.213Z,27.38
2022-11-30T21:29:17.528Z,26.00
2022-11-30T21:31:45.973Z,1348.85
2022-11-30T21:34:14.189Z,1258.00
2022-11-30T21:36:41.558Z,668.35
2022-11-30T21:39:10.212Z,125.43
2022-11-30T21:41:40.082Z,86.93
2022-11-30T21:44:12.979Z,29.95
2022-11-30T21:46:40.445Z,30.95
2022-11-30T21:49:09.893Z,28.48
2022-11-30T21:51:38.146Z,27.30
2022-11-30T21:54:10.633Z,22.48
2022-11-30T21:56:40.808Z,24.70
2022-11-30T21:59:11.375Z,21.90
2022-11-30T22:01:43.980Z,20.27
2022-11-30T22:04:14.314Z,21.98
2022-11-30T22:06:42.946Z,23.38
2022-11-30T22:09:16.495Z,22.90
2022-11-30T22:11:46.167Z,24.20
2022-11-30T22:14:16.583Z,22.83
2022-11-30T22:16:44.505Z,29.75
2022-11-30T22:19:11.735Z,26.20
2022-11-30T22:21:44.102Z,27.58
2022-11-30T22:24:14.743Z,30.42
2022-11-30T22:29:14.835Z,23.88
2022-11-30T22:31:46.380Z,33.80
2022-11-30T22:34:14.631Z,20.70
2022-11-30T22:36:44.527Z,24.05
2022-11-30T22:39:21.288Z,20.77
2022-11-30T22:41:55.072Z,21.15
2022-11-30T22:44:24.408Z,21.02
2022-11-30T22:46:52.059Z,19.88
2022-11-30T22:49:21.570Z,17.02
2022-11-30T22:51:49.973Z,20.92
2022-11-30T22:54:18.079Z,21.25
2022-11-30T22:56:46.674Z,24.77
2022-11-30T22:59:15.450Z,19.70
2022-11-30T23:01:49.907Z,22.67
2022-11-30T23:04:22.985Z,25.45
2022-11-30T23:06:51.086Z,19.40
2022-11-30T23:11:50.267Z,12.25
2022-11-30T23:14:19.221Z,9.20
2022-11-30T23:16:47.733Z,9.05
2022-11-30T23:19:15.743Z,10.65
2022-11-30T23:21:48.852Z,10.23
2022-11-30T23:24:20.898Z,10.38
2022-11-30T23:26:48.798Z,8.65
2022-11-30T23:29:17.675Z,9.68
2022-11-30T23:31:46.762Z,10.35
2022-11-30T23:34:20.039Z,7.95
2022-11-30T23:36:50.271Z,6.97
2022-11-30T23:39:19.748Z,9.95
2022-11-30T23:41:47.832Z,7.85
2022-11-30T23:44:15.434Z,15.57
2022-11-30T23:46:42.863Z,11.93
2022-11-30T23:49:13.178Z,15.48
2022-11-30T23:51:40.423Z,17.05
2022-11-30T23:54:07.753Z,10.90
2022-11-30T23:56:35.302Z,8.00
2022-11-30T23:59:02.571Z,15.88
